Time;durP1;ratioP1;P1;durP2;ratioP2;P2;SDS_P1;SDS_P2;PMS_P1;PMS_P2;Temp;Humidity;BMP_temperature;BMP_pressure;BME280_temperature;BME280_humidity;BME280_pressure;Samples;Min_cycle;Max_cycle;Signal;HPM_P1;HPM_P2
2023/04/15 00:01:24;;;;;;;0.75;0.55;;;;;;;;;;5013248;28;20045;-75
2023/04/15 00:03:54;;;;;;;0.70;0.70;;;;;;;;;;5013490;28;20026;-76
2023/04/15 00:06:23;;;;;;;1.05;0.88;;;;;;;;;;4999266;28;20034;-75
2023/04/15 00:08:49;;;;;;;;;;;;;;;;;;4998919;28;20064;-76
2023/04/15 00:11:16;;;;;;;3.70;0.60;;;;;;;;;;4998367;28;19909;-76
2023/04/15 00:13:42;;;;;;;1.20;1.10;;;;;;;;;;4996662;28;20056;-76
2023/04/15 00:16:09;;;;;;;2.60;0.65;;;;;;;;;;5011213;28;20053;-75
2023/04/15 00:18:36;;;;;;;1.02;0.93;;;;;;;;;;5012665;28;20021;-76
2023/04/15 00:21:02;;;;;;;2.60;0.68;;;;;;;;;;5011452;28;20026;-75
2023/04/15 00:23:28;;;;;;;3.25;0.70;;;;;;;;;;5010237;28;20029;-75
2023/04/15 00:25:54;;;;;;;2.75;0.65;;;;;;;;;;4993637;28;20053;-75
2023/04/15 00:28:21;;;;;;;0.40;0.40;;;;;;;;;;5010607;28;20601;-76
2023/04/15 00:30:47;;;;;;;0.60;0.60;;;;;;;;;;4994560;28;20029;-76
2023/04/15 00:33:13;;;;;;;0.88;0.60;;;;;;;;;;5012546;28;20034;-76
2023/04/15 00:35:39;;;;;;;0.50;0.50;;;;;;;;;;4992277;28;20645;-76
2023/04/15 00:38:07;;;;;;;1.17;0.60;;;;;;;;;;4990095;28;20014;-75
2023/04/15 00:40:33;;;;;;;0.70;0.70;;;;;;;;;;5009230;28;20363;-75
2023/04/15 00:42:59;;;;;;;1.60;0.50;;;;;;;;;;5009153;28;20022;-75
2023/04/15 00:45:27;;;;;;;0.70;0.70;;;;;;;;;;4991482;28;20057;-75
2023/04/15 00:47:53;;;;;;;0.88;0.85;;;;;;;;;;5010081;28;20026;-76
2023/04/15 00:50:19;;;;;;;1.17;0.75;;;;;;;;;;4992950;28;20033;-75
2023/04/15 00:52:45;;;;;;;1.38;0.90;;;;;;;;;;5010022;28;20022;-75
2023/04/15 00:55:11;;;;;;;0.50;0.50;;;;;;;;;;5008797;28;20066;-75
2023/04/15 00:57:38;;;;;;;2.42;0.98;;;;;;;;;;4991494;28;20032;-75
2023/04/15 01:00:06;;;;;;;1.20;0.75;;;;;;;;;;5009362;28;20537;-75
2023/04/15 01:02:32;;;;;;;3.10;0.70;;;;;;;;;;4993034;28;20029;-76
2023/04/15 01:04:58;;;;;;;0.43;0.43;;;;;;;;;;5008805;28;20467;-76
2023/04/15 01:07:25;;;;;;;0.88;0.60;;;;;;;;;;4990541;28;20064;-75
2023/04/15 01:09:51;;;;;;;0.80;0.55;;;;;;;;;;5007493;28;20489;-74
2023/04/15 01:12:17;;;;;;;2.85;0.60;;;;;;;;;;4990394;28;20026;-76
2023/04/15 01:14:43;;;;;;;3.40;0.60;;;;;;;;;;5007804;28;20116;-76
2023/04/15 01:17:09;;;;;;;2.38;0.57;;;;;;;;;;4989797;28;20040;-75
2023/04/15 01:19:39;;;;;;;1.13;0.88;;;;;;;;;;5007444;28;20026;-75
2023/04/15 01:22:04;;;;;;;;;;;;;;;;;;5008473;28;20033;-75
2023/04/15 01:24:34;;;;;;;3.58;1.00;;;;;;;;;;4989739;28;20444;-75
2023/04/15 01:27:01;;;;;;;0.70;0.43;;;;;;;;;;5007949;28;20342;-76
2023/04/15 01:29:27;;;;;;;0.63;0.60;;;;;;;;;;5007979;28;20034;-76
2023/04/15 01:31:54;;;;;;;1.38;0.65;;;;;;;;;;4990594;28;20030;-76
2023/04/15 01:34:21;;;;;;;0.93;0.60;;;;;;;;;;5008176;28;20286;-76
2023/04/15 01:36:47;;;;;;;1.55;0.60;;;;;;;;;;4990535;28;20385;-75
2023/04/15 01:39:13;;;;;;;1.05;0.57;;;;;;;;;;4989717;28;20124;-75
2023/04/15 01:41:41;;;;;;;0.50;0.50;;;;;;;;;;4990013;28;20064;-76
2023/04/15 01:44:07;;;;;;;1.30;1.20;;;;;;;;;;5007360;28;20026;-76
2023/04/15 01:46:33;;;;;;;1.83;1.23;;;;;;;;;;4989734;28;20034;-76
2023/04/15 01:48:59;;;;;;;1.38;0.90;;;;;;;;;;4988424;28;20034;-76
2023/04/15 01:51:26;;;;;;;0.93;0.80;;;;;;;;;;5007140;28;20030;-76
2023/04/15 01:53:52;;;;;;;1.30;1.20;;;;;;;;;;4989426;28;20069;-75
2023/04/15 01:56:18;;;;;;;1.00;1.00;;;;;;;;;;4989046;28;20034;-76
2023/04/15 01:58:44;;;;;;;0.60;0.60;;;;;;;;;;4989737;28;20036;-75
2023/04/15 02:01:10;;;;;;;1.75;1.02;;;;;;;;;;5008671;28;20054;-75
2023/04/15 02:03:38;;;;;;;1.30;1.20;;;;;;;;;;5007225;28;20052;-76
2023/04/15 02:06:05;;;;;;;0.90;0.90;;;;;;;;;;4989455;28;20029;-76
2023/04/15 02:08:31;;;;;;;4.22;1.10;;;;;;;;;;4990463;28;20064;-76
2023/04/15 02:10:57;;;;;;;1.65;1.10;;;;;;;;;;5007988;28;20041;-76
2023/04/15 02:13:23;;;;;;;3.13;1.15;;;;;;;;;;4990335;28;20030;-75
2023/04/15 02:15:49;;;;;;;1.73;1.10;;;;;;;;;;4989749;28;20044;-76
2023/04/15 02:18:16;;;;;;;4.38;1.75;;;;;;;;;;4990350;28;20026;-77
2023/04/15 02:20:45;;;;;;;6.03;1.35;;;;;;;;;;4990400;28;20026;-75
2023/04/15 02:23:11;;;;;;;;;;;;;;;;;;5006777;28;20518;-76
2023/04/15 02:25:38;;;;;;;1.98;1.05;;;;;;;;;;5006840;28;19992;-75
2023/04/15 02:28:05;;;;;;;3.80;1.77;;;;;;;;;;4988577;28;20113;-75
2023/04/15 02:30:31;;;;;;;3.08;1.50;;;;;;;;;;5007331;28;20026;-75
2023/04/15 02:32:57;;;;;;;3.63;2.10;;;;;;;;;;5006962;28;20125;-75
2023/04/15 02:35:24;;;;;;;1.98;1.58;;;;;;;;;;4989479;28;20130;-75
2023/04/15 02:37:51;;;;;;;1.85;1.58;;;;;;;;;;5006793;28;20026;-75
2023/04/15 02:40:17;;;;;;;3.25;1.65;;;;;;;;;;4989807;28;20033;-75
2023/04/15 02:42:43;;;;;;;1.88;1.63;;;;;;;;;;4990069;28;20061;-75
2023/04/15 02:45:13;;;;;;;4.78;1.27;;;;;;;;;;5007271;28;20386;-75
2023/04/15 02:47:40;;;;;;;1.45;1.33;;;;;;;;;;4989485;28;20409;-76
2023/04/15 02:50:12;;;;;;;2.25;1.58;;;;;;;;;;5007362;28;20347;-75
2023/04/15 02:52:41;;;;;;;1.40;1.30;;;;;;;;;;5007655;28;20265;-75
2023/04/15 02:55:08;;;;;;;;;;;;;;;;;;5007041;28;20042;-74
2023/04/15 02:57:36;;;;;;;2.65;1.60;;;;;;;;;;5007053;28;20258;-75
2023/04/15 03:00:03;;;;;;;3.95;1.70;;;;;;;;;;4989791;28;20091;-75
2023/04/15 03:02:33;;;;;;;3.25;1.98;;;;;;;;;;5010876;28;20081;-76
2023/04/15 03:05:00;;;;;;;1.60;1.10;;;;;;;;;;5010627;28;20080;-74
2023/04/15 03:07:26;;;;;;;5.03;1.40;;;;;;;;;;4992604;28;20037;-74
2023/04/15 03:09:52;;;;;;;4.80;1.88;;;;;;;;;;4992367;28;20038;-75
2023/04/15 03:12:18;;;;;;;3.33;1.40;;;;;;;;;;5010813;28;20033;-74
2023/04/15 03:14:44;;;;;;;1.90;1.10;;;;;;;;;;5010583;28;20410;-75
2023/04/15 03:17:10;;;;;;;2.72;1.25;;;;;;;;;;5009870;28;20072;-75
2023/04/15 03:19:36;;;;;;;2.13;1.50;;;;;;;;;;4992606;28;20054;-75
2023/04/15 03:22:02;;;;;;;11.50;3.28;;;;;;;;;;4992959;28;20034;-75
2023/04/15 03:24:29;;;;;;;1.30;1.20;;;;;;;;;;5010903;28;20105;-75
2023/04/15 03:26:56;;;;;;;1.80;1.52;;;;;;;;;;5010495;28;20018;-76
2023/04/15 03:29:22;;;;;;;3.13;1.80;;;;;;;;;;4992488;28;20486;-75
2023/04/15 03:31:48;;;;;;;2.22;1.55;;;;;;;;;;5009858;28;20037;-74
2023/04/15 03:34:14;;;;;;;5.78;2.10;;;;;;;;;;4992374;28;20981;-76
2023/04/15 03:36:40;;;;;;;3.15;1.42;;;;;;;;;;4991960;28;20302;-76
2023/04/15 03:39:06;;;;;;;6.13;1.38;;;;;;;;;;4991679;28;20034;-76
2023/04/15 03:41:32;;;;;;;4.93;1.80;;;;;;;;;;5011098;28;20026;-75
2023/04/15 03:43:58;;;;;;;1.67;1.58;;;;;;;;;;5010576;28;20029;-75
2023/04/15 03:46:25;;;;;;;2.17;1.40;;;;;;;;;;5010304;28;20442;-75
2023/04/15 03:48:51;;;;;;;2.80;1.75;;;;;;;;;;5009702;28;20022;-76
2023/04/15 03:51:17;;;;;;;4.10;1.38;;;;;;;;;;4995211;28;20040;-75
2023/04/15 03:53:43;;;;;;;2.58;1.42;;;;;;;;;;5009162;28;20624;-75
2023/04/15 03:56:09;;;;;;;1.67;1.27;;;;;;;;;;4991211;28;20041;-77
2023/04/15 03:58:35;;;;;;;1.70;1.10;;;;;;;;;;4992195;28;20125;-76
2023/04/15 04:01:01;;;;;;;1.35;1.25;;;;;;;;;;5010094;28;20237;-75
2023/04/15 04:03:27;;;;;;;6.20;1.35;;;;;;;;;;4992321;28;20190;-76
2023/04/15 04:05:53;;;;;;;1.40;1.25;;;;;;;;;;5009271;28;20486;-75
2023/04/15 04:08:20;;;;;;;1.65;1.13;;;;;;;;;;5008415;28;20105;-77
2023/04/15 04:10:46;;;;;;;2.47;1.30;;;;;;;;;;5008871;28;20029;-75
2023/04/15 04:13:12;;;;;;;2.92;1.30;;;;;;;;;;5007756;28;20029;-75
2023/04/15 04:15:38;;;;;;;1.13;1.02;;;;;;;;;;5008368;28;20521;-76
2023/04/15 04:18:04;;;;;;;4.38;1.77;;;;;;;;;;5008086;28;20382;-77
2023/04/15 04:20:31;;;;;;;2.95;1.48;;;;;;;;;;4991218;28;20037;-76
2023/04/15 04:22:57;;;;;;;5.00;1.95;;;;;;;;;;5010506;28;20026;-77
2023/04/15 04:25:23;;;;;;;1.52;1.38;;;;;;;;;;5009697;28;20095;-75
2023/04/15 04:27:49;;;;;;;2.78;1.73;;;;;;;;;;5008395;28;20379;-77
2023/04/15 04:30:15;;;;;;;4.72;1.70;;;;;;;;;;5009856;28;20022;-76
2023/04/15 04:32:41;;;;;;;6.68;1.77;;;;;;;;;;5011965;28;20148;-75
2023/04/15 04:35:08;;;;;;;2.08;1.80;;;;;;;;;;4992931;28;20061;-77
2023/04/15 04:37:34;;;;;;;1.75;1.60;;;;;;;;;;4993115;28;20037;-75
2023/04/15 04:40:00;;;;;;;3.03;1.70;;;;;;;;;;5010547;28;20026;-76
2023/04/15 04:42:26;;;;;;;4.40;2.03;;;;;;;;;;5011255;28;20037;-77
2023/04/15 04:44:52;;;;;;;3.55;2.05;;;;;;;;;;4991676;28;20112;-77
2023/04/15 04:47:18;;;;;;;4.25;1.50;;;;;;;;;;5009127;28;20112;-77
2023/04/15 04:49:44;;;;;;;1.77;1.55;;;;;;;;;;4990721;28;20120;-76
2023/04/15 04:52:10;;;;;;;2.95;1.55;;;;;;;;;;5008545;28;20025;-76
2023/04/15 04:54:36;;;;;;;1.50;1.40;;;;;;;;;;4989904;28;20026;-74
2023/04/15 04:57:02;;;;;;;6.03;2.10;;;;;;;;;;5008373;28;20042;-76
2023/04/15 04:59:28;;;;;;;1.25;1.23;;;;;;;;;;4990291;28;20071;-75
2023/04/15 05:01:54;;;;;;;1.77;1.23;;;;;;;;;;5008330;28;20050;-75
2023/04/15 05:04:20;;;;;;;4.38;2.33;;;;;;;;;;4989975;28;20030;-75
2023/04/15 05:06:46;;;;;;;5.68;2.17;;;;;;;;;;4990003;28;20103;-76
2023/04/15 05:09:12;;;;;;;2.78;1.50;;;;;;;;;;4989657;28;20026;-75
2023/04/15 05:11:38;;;;;;;4.03;1.55;;;;;;;;;;5008126;28;20145;-75
2023/04/15 05:14:04;;;;;;;4.75;1.90;;;;;;;;;;5008303;28;20036;-76
2023/04/15 05:16:30;;;;;;;5.68;2.45;;;;;;;;;;4990432;28;20046;-76
2023/04/15 05:18:56;;;;;;;4.72;1.92;;;;;;;;;;5007108;28;20032;-75
2023/04/15 05:21:22;;;;;;;2.97;1.60;;;;;;;;;;4989849;28;20022;-74
2023/04/15 05:23:48;;;;;;;6.05;2.53;;;;;;;;;;5008766;28;20053;-75
2023/04/15 05:26:14;;;;;;;1.60;1.50;;;;;;;;;;5010014;28;20018;-75
2023/04/15 05:28:40;;;;;;;3.60;2.28;;;;;;;;;;4991342;28;20029;-76
2023/04/15 05:31:07;;;;;;;4.40;2.10;;;;;;;;;;4991776;28;20033;-74
2023/04/15 05:33:33;;;;;;;4.47;2.03;;;;;;;;;;4990908;28;20076;-76
2023/04/15 05:36:00;;;;;;;3.67;2.17;;;;;;;;;;5010074;28;20045;-74
2023/04/15 05:38:26;;;;;;;3.38;1.70;;;;;;;;;;5008550;28;20022;-75
2023/04/15 05:40:52;;;;;;;2.67;1.98;;;;;;;;;;5008277;28;20087;-74
2023/04/15 05:43:18;;;;;;;3.28;2.88;;;;;;;;;;5008037;28;20065;-75
2023/04/15 05:45:44;;;;;;;2.17;1.80;;;;;;;;;;5007215;28;20025;-74
2023/04/15 05:48:10;;;;;;;2.88;1.90;;;;;;;;;;5007293;28;20069;-75
2023/04/15 05:50:38;;;;;;;4.53;1.85;;;;;;;;;;5008535;28;20844;-76
2023/04/15 05:53:05;;;;;;;4.28;1.60;;;;;;;;;;5008126;28;20056;-75
2023/04/15 05:55:30;;;;;;;3.67;2.28;;;;;;;;;;5007808;28;20045;-75
2023/04/15 05:57:57;;;;;;;2.72;2.10;;;;;;;;;;5008329;28;20022;-75
2023/04/15 06:00:22;;;;;;;2.10;1.85;;;;;;;;;;5007464;28;20557;-75
2023/04/15 06:02:49;;;;;;;3.30;1.98;;;;;;;;;;5007636;28;20030;-75
2023/04/15 06:05:15;;;;;;;3.08;2.15;;;;;;;;;;5007644;28;20018;-76
2023/04/15 06:07:42;;;;;;;2.85;2.35;;;;;;;;;;5007127;28;20026;-76
2023/04/15 06:10:08;;;;;;;8.00;2.65;;;;;;;;;;5007014;28;20061;-76
2023/04/15 06:12:35;;;;;;;5.43;1.90;;;;;;;;;;5007979;28;20093;-76
2023/04/15 06:15:01;;;;;;;6.90;2.75;;;;;;;;;;5007553;28;20018;-76
2023/04/15 06:17:27;;;;;;;4.63;2.55;;;;;;;;;;4989198;28;20079;-76
2023/04/15 06:19:56;;;;;;;3.10;2.30;;;;;;;;;;5008176;28;20061;-77
2023/04/15 06:22:22;;;;;;;2.78;2.55;;;;;;;;;;5008037;28;20069;-77
2023/04/15 06:24:52;;;;;;;4.30;2.58;;;;;;;;;;5006440;28;20018;-77
2023/04/15 06:27:18;;;;;;;5.40;2.60;;;;;;;;;;5007452;28;20037;-76
2023/04/15 06:29:44;;;;;;;4.28;2.17;;;;;;;;;;4988601;28;20029;-77
2023/04/15 06:32:11;;;;;;;3.20;2.13;;;;;;;;;;4988739;28;20054;-76
2023/04/15 06:34:38;;;;;;;4.82;3.05;;;;;;;;;;4985803;28;20033;-76
2023/04/15 06:37:04;;;;;;;9.02;3.75;;;;;;;;;;5012328;28;20038;-78
2023/04/15 06:39:30;;;;;;;5.93;2.88;;;;;;;;;;5001710;28;20037;-76
2023/04/15 06:41:56;;;;;;;3.88;2.83;;;;;;;;;;5007543;28;20531;-76
2023/04/15 06:44:25;;;;;;;6.40;2.05;;;;;;;;;;4990298;28;20046;-78
2023/04/15 06:46:52;;;;;;;4.73;2.10;;;;;;;;;;5011103;28;20118;-76
2023/04/15 06:49:18;;;;;;;5.57;2.30;;;;;;;;;;5026842;28;20551;-75
2023/04/15 06:51:44;;;;;;;5.43;2.30;;;;;;;;;;5007803;28;20037;-75
2023/04/15 06:54:10;;;;;;;8.88;2.28;;;;;;;;;;4989425;28;20061;-77
2023/04/15 06:56:36;;;;;;;4.72;2.58;;;;;;;;;;5022120;28;20037;-76
2023/04/15 06:59:02;;;;;;;4.55;2.65;;;;;;;;;;5026147;28;20109;-76
2023/04/15 07:01:28;;;;;;;6.63;3.15;;;;;;;;;;5001639;28;20493;-75
2023/04/15 07:03:54;;;;;;;3.78;2.97;;;;;;;;;;5020987;28;20029;-76
2023/04/15 07:06:21;;;;;;;9.95;2.50;;;;;;;;;;5018077;28;20033;-76
2023/04/15 07:08:47;;;;;;;4.15;2.20;;;;;;;;;;5016424;28;20033;-76
2023/04/15 07:11:13;;;;;;;4.85;3.05;;;;;;;;;;5013135;28;20117;-77
2023/04/15 07:13:40;;;;;;;3.03;2.22;;;;;;;;;;4984894;28;20486;-76
2023/04/15 07:16:06;;;;;;;3.58;2.63;;;;;;;;;;5010124;28;20033;-77
2023/04/15 07:18:32;;;;;;;4.55;2.53;;;;;;;;;;4991984;28;20036;-77
2023/04/15 07:20:58;;;;;;;5.53;1.83;;;;;;;;;;4988130;28;20026;-77
2023/04/15 07:23:24;;;;;;;7.10;2.38;;;;;;;;;;5003860;28;20487;-77
2023/04/15 07:25:51;;;;;;;4.88;2.00;;;;;;;;;;5012505;28;20091;-77
2023/04/15 07:28:17;;;;;;;4.25;1.80;;;;;;;;;;5024512;28;20029;-78
2023/04/15 07:30:43;;;;;;;5.22;2.40;;;;;;;;;;5012929;28;20072;-77
2023/04/15 07:33:09;;;;;;;7.80;3.75;;;;;;;;;;5004958;28;20030;-77
2023/04/15 07:35:35;;;;;;;13.98;2.40;;;;;;;;;;5018442;28;20080;-77
2023/04/15 07:38:01;;;;;;;5.25;1.90;;;;;;;;;;5017152;28;20245;-76
2023/04/15 07:40:27;;;;;;;6.43;3.00;;;;;;;;;;5014999;28;20036;-77
2023/04/15 07:42:54;;;;;;;5.20;2.05;;;;;;;;;;5014349;28;20049;-77
2023/04/15 07:45:20;;;;;;;2.88;2.47;;;;;;;;;;5004304;28;20374;-76
2023/04/15 07:47:46;;;;;;;5.93;1.73;;;;;;;;;;5002439;28;20037;-76
2023/04/15 07:50:12;;;;;;;4.63;2.20;;;;;;;;;;5017539;28;20378;-76
2023/04/15 07:52:38;;;;;;;1.95;1.73;;;;;;;;;;5008163;28;20479;-78
2023/04/15 07:55:08;;;;;;;2.63;2.42;;;;;;;;;;4992753;28;20025;-76
2023/04/15 07:57:35;;;;;;;4.35;1.75;;;;;;;;;;4987025;28;20041;-77
2023/04/15 08:00:02;;;;;;;8.60;1.95;;;;;;;;;;5019188;28;20045;-77
2023/04/15 08:02:28;;;;;;;4.03;2.20;;;;;;;;;;5015259;28;20034;-76
2023/04/15 08:04:54;;;;;;;4.43;1.60;;;;;;;;;;5016129;28;20118;-76
2023/04/15 08:07:21;;;;;;;5.47;1.95;;;;;;;;;;5024819;28;20021;-77
2023/04/15 08:09:47;;;;;;;8.30;2.83;;;;;;;;;;5011690;28;20029;-77
2023/04/15 08:12:13;;;;;;;4.13;2.78;;;;;;;;;;5021142;28;20084;-77
2023/04/15 08:14:40;;;;;;;2.70;2.47;;;;;;;;;;5013282;28;20022;-76
2023/04/15 08:17:06;;;;;;;4.65;2.78;;;;;;;;;;5004433;28;20381;-76
2023/04/15 08:19:32;;;;;;;4.30;3.45;;;;;;;;;;5005789;28;20053;-76
2023/04/15 08:21:58;;;;;;;7.28;2.70;;;;;;;;;;5013746;28;20048;-77
2023/04/15 08:24:25;;;;;;;5.50;3.35;;;;;;;;;;5017965;28;20026;-77
2023/04/15 08:26:51;;;;;;;4.47;3.47;;;;;;;;;;5012067;28;20033;-77
2023/04/15 08:29:17;;;;;;;3.47;2.38;;;;;;;;;;5023087;28;20088;-77
2023/04/15 08:31:43;;;;;;;4.82;2.45;;;;;;;;;;5022838;28;20033;-78
2023/04/15 08:34:11;;;;;;;3.30;2.40;;;;;;;;;;5021911;28;20033;-77
2023/04/15 08:36:37;;;;;;;8.90;3.60;;;;;;;;;;5001681;28;20096;-77
2023/04/15 08:39:03;;;;;;;8.32;2.92;;;;;;;;;;4998384;28;20026;-77
2023/04/15 08:41:34;;;;;;;5.88;3.15;;;;;;;;;;4998113;28;20098;-76
2023/04/15 08:44:04;;;;;;;4.53;2.03;;;;;;;;;;4998122;28;20028;-77
2023/04/15 08:46:33;;;;;;;7.95;2.67;;;;;;;;;;4993194;28;20026;-77
2023/04/15 08:49:00;;;;;;;4.07;2.45;;;;;;;;;;4992026;28;20018;-78
2023/04/15 08:51:26;;;;;;;5.55;3.78;;;;;;;;;;5015308;28;20025;-77
2023/04/15 08:53:52;;;;;;;3.97;2.53;;;;;;;;;;5016430;28;20029;-76
2023/04/15 08:56:19;;;;;;;4.50;2.95;;;;;;;;;;5022232;28;20037;-79
2023/04/15 08:58:46;;;;;;;3.30;2.05;;;;;;;;;;5016949;28;20209;-77
2023/04/15 09:01:12;;;;;;;6.07;3.15;;;;;;;;;;5017689;28;20054;-77
2023/04/15 09:03:39;;;;;;;3.13;2.90;;;;;;;;;;5009166;28;20451;-76
2023/04/15 09:06:05;;;;;;;5.00;2.47;;;;;;;;;;4991809;28;20092;-76
2023/04/15 09:08:33;;;;;;;4.72;2.35;;;;;;;;;;4992678;28;20269;-76
2023/04/15 09:10:59;;;;;;;2.20;1.88;;;;;;;;;;5010465;28;20034;-76
2023/04/15 09:13:25;;;;;;;4.85;2.40;;;;;;;;;;4992032;28;20060;-76
2023/04/15 09:15:51;;;;;;;5.30;2.40;;;;;;;;;;5007890;28;20093;-76
2023/04/15 09:18:27;;;;;;;3.03;2.40;;;;;;;;;;5010033;28;20037;-78
2023/04/15 09:20:53;;;;;;;2.90;2.40;;;;;;;;;;4993306;28;20490;-77
2023/04/15 09:23:19;;;;;;;2.55;1.98;;;;;;;;;;4991013;28;20025;-77
2023/04/15 09:25:46;;;;;;;2.58;2.28;;;;;;;;;;4990502;28;20053;-78
2023/04/15 09:28:12;;;;;;;3.70;2.40;;;;;;;;;;4990503;28;20097;-77
2023/04/15 09:30:39;;;;;;;2.70;2.50;;;;;;;;;;5011340;28;20036;-77
2023/04/15 09:33:07;;;;;;;1.90;1.80;;;;;;;;;;5009627;28;20028;-78
2023/04/15 09:35:34;;;;;;;2.30;2.05;;;;;;;;;;4990975;28;20589;-78
2023/04/15 09:38:02;;;;;;;5.00;2.15;;;;;;;;;;4992343;28;20119;-77
2023/04/15 09:40:32;;;;;;;5.72;3.65;;;;;;;;;;5002832;28;20034;-79
2023/04/15 09:42:58;;;;;;;2.72;2.53;;;;;;;;;;4990833;28;20018;-77
2023/04/15 09:45:25;;;;;;;2.83;1.88;;;;;;;;;;4993766;28;20310;-78
2023/04/15 09:47:51;;;;;;;3.90;1.95;;;;;;;;;;4990186;28;20034;-78
2023/04/15 09:50:18;;;;;;;3.55;2.13;;;;;;;;;;5007930;28;20467;-78
2023/04/15 09:52:44;;;;;;;2.40;1.88;;;;;;;;;;4990492;28;20030;-78
2023/04/15 09:55:11;;;;;;;6.00;2.83;;;;;;;;;;5011272;28;20506;-78
2023/04/15 09:57:40;;;;;;;4.85;2.00;;;;;;;;;;4992495;28;20120;-79
2023/04/15 10:00:07;;;;;;;6.40;4.35;;;;;;;;;;5008102;28;20479;-79
2023/04/15 10:02:33;;;;;;;4.45;1.90;;;;;;;;;;5008539;28;20033;-79
2023/04/15 10:04:59;;;;;;;1.70;1.60;;;;;;;;;;5007622;28;20630;-79
2023/04/15 10:07:25;;;;;;;2.85;1.98;;;;;;;;;;5007252;28;20026;-79
2023/04/15 10:09:51;;;;;;;1.67;1.58;;;;;;;;;;4989556;28;20425;-79
2023/04/15 10:12:18;;;;;;;3.30;2.33;;;;;;;;;;5021219;28;20222;-78
2023/04/15 10:14:44;;;;;;;2.65;1.42;;;;;;;;;;5025039;28;20017;-78
2023/04/15 10:17:11;;;;;;;2.40;2.20;;;;;;;;;;5018055;28;20040;-77
2023/04/15 10:19:38;;;;;;;4.18;2.08;;;;;;;;;;5018901;28;20014;-77
2023/04/15 10:22:04;;;;;;;4.38;2.10;;;;;;;;;;4998175;28;20030;-77
2023/04/15 10:24:33;;;;;;;1.13;1.02;;;;;;;;;;5002721;28;20029;-77
2023/04/15 10:27:00;;;;;;;4.05;1.63;;;;;;;;;;4999427;28;20056;-77
2023/04/15 10:29:26;;;;;;;1.40;1.30;;;;;;;;;;4998964;28;20030;-77
2023/04/15 10:31:55;;;;;;;3.30;1.55;;;;;;;;;;4995113;28;20030;-77
2023/04/15 10:34:21;;;;;;;3.97;1.08;;;;;;;;;;5012963;28;20033;-77
2023/04/15 10:36:47;;;;;;;1.42;1.33;;;;;;;;;;5017436;28;20029;-77
2023/04/15 10:39:32;;;;;;;1.33;0.93;;;;;;;;;;4998342;28;20482;-79
2023/04/15 10:42:14;;;;;;;1.85;1.75;;;;;;;;;;5020317;28;20014;-78
2023/04/15 10:44:45;;;;;;;0.93;0.80;;;;;;;;;;4998684;28;20049;-79
2023/04/15 10:47:12;;;;;;;6.32;1.10;;;;;;;;;;5017415;28;20030;-78
2023/04/15 10:49:51;;;;;;;3.53;1.95;;;;;;;;;;4997207;28;20021;-79
2023/04/15 10:52:22;;;;;;;0.95;0.95;;;;;;;;;;5011337;28;20030;-79
2023/04/15 10:54:48;;;;;;;1.95;1.35;;;;;;;;;;5018410;28;20278;-78
2023/04/15 10:57:15;;;;;;;3.10;2.22;;;;;;;;;;5032781;28;20518;-79
2023/04/15 11:00:05;;;;;;;7.03;4.53;;;;;;;;;;5018482;28;20482;-79
2023/04/15 11:02:38;;;;;;;2.78;2.10;;;;;;;;;;5030287;28;20248;-79
2023/04/15 11:05:04;;;;;;;0.70;0.70;;;;;;;;;;5033358;28;20017;-79
2023/04/15 11:07:42;;;;;;;0.98;0.60;;;;;;;;;;5040441;28;20318;-80
2023/04/15 11:10:19;;;;;;;0.80;0.80;;;;;;;;;;5017591;28;20030;-79
2023/04/15 11:12:45;;;;;;;1.08;1.08;;;;;;;;;;5012762;28;20266;-79
2023/04/15 11:15:32;;;;;;;0.90;0.80;;;;;;;;;;5029700;28;20038;-79
2023/04/15 11:18:09;;;;;;;2.78;0.70;;;;;;;;;;5014772;28;20026;-79
2023/04/15 11:20:36;;;;;;;0.80;0.80;;;;;;;;;;5041391;28;20371;-79
2023/04/15 11:23:02;;;;;;;1.00;0.70;;;;;;;;;;5010734;28;20033;-79
2023/04/15 11:25:29;;;;;;;0.85;0.70;;;;;;;;;;5013782;28;20034;-79
2023/04/15 11:27:56;;;;;;;5.68;2.65;;;;;;;;;;4995545;28;20425;-79
2023/04/15 11:30:22;;;;;;;7.88;3.33;;;;;;;;;;5029215;28;20194;-80
2023/04/15 11:32:50;;;;;;;36.95;17.52;;;;;;;;;;5002402;28;20037;-79
2023/04/15 11:35:17;;;;;;;5.28;3.28;;;;;;;;;;5006449;28;20036;-79
2023/04/15 11:37:43;;;;;;;11.98;6.05;;;;;;;;;;5027625;28;20828;-79
2023/04/15 11:40:10;;;;;;;4.88;3.58;;;;;;;;;;5002634;28;20037;-80
2023/04/15 11:42:36;;;;;;;14.35;6.85;;;;;;;;;;5004814;28;20548;-80
2023/04/15 11:45:09;;;;;;;3.72;2.05;;;;;;;;;;5001028;28;20113;-79
2023/04/15 11:47:35;;;;;;;1.30;1.02;;;;;;;;;;4998026;28;20314;-80
2023/04/15 11:50:15;;;;;;;1.55;1.45;;;;;;;;;;5012313;28;20475;-80
2023/04/15 11:52:41;;;;;;;;;;;;;;;;;;4998055;28;20029;-81
2023/04/15 11:55:07;;;;;;;0.70;0.70;;;;;;;;;;5011597;28;19951;-80
2023/04/15 11:57:34;;;;;;;1.42;1.27;;;;;;;;;;4994666;28;20051;-80
2023/04/15 12:00:00;;;;;;;2.05;0.90;;;;;;;;;;4994242;28;20045;-80
2023/04/15 12:02:36;;;;;;;1.13;0.50;;;;;;;;;;5011508;28;20042;-80
2023/04/15 12:05:06;;;;;;;1.92;0.88;;;;;;;;;;5011218;28;20021;-79
2023/04/15 12:07:32;;;;;;;0.52;0.50;;;;;;;;;;4994348;28;20537;-80
2023/04/15 12:09:58;;;;;;;0.40;0.35;;;;;;;;;;5012366;28;20041;-81
2023/04/15 12:12:28;;;;;;;0.43;0.43;;;;;;;;;;4991508;28;20479;-79
2023/04/15 12:14:56;;;;;;;0.40;0.40;;;;;;;;;;4976115;28;20120;-80
2023/04/15 12:17:23;;;;;;;2.42;0.77;;;;;;;;;;4993626;28;20049;-80
2023/04/15 12:19:55;;;;;;;0.95;0.75;;;;;;;;;;4975449;28;20433;-80
2023/04/15 12:22:21;;;;;;;0.73;0.73;;;;;;;;;;4976056;28;20097;-79
2023/04/15 12:24:55;;;;;;;1.00;0.68;;;;;;;;;;4993104;28;20101;-81
2023/04/15 12:27:26;;;;;;;0.90;0.90;;;;;;;;;;4992889;28;20498;-80
2023/04/15 12:30:03;;;;;;;0.70;0.70;;;;;;;;;;4993567;28;20070;-81
2023/04/15 12:32:29;;;;;;;0.85;0.70;;;;;;;;;;4977392;28;20031;-82
2023/04/15 12:34:55;;;;;;;1.95;0.90;;;;;;;;;;4975216;28;20022;-81
2023/04/15 12:37:21;;;;;;;0.90;0.88;;;;;;;;;;4975448;28;20042;-81
2023/04/15 12:39:48;;;;;;;1.23;0.43;;;;;;;;;;4975259;28;20040;-80
2023/04/15 12:42:15;;;;;;;0.50;0.50;;;;;;;;;;4975386;28;20053;-81
2023/04/15 12:44:41;;;;;;;1.13;1.02;;;;;;;;;;4975868;28;20023;-81
2023/04/15 12:47:08;;;;;;;0.70;0.70;;;;;;;;;;4993706;28;20026;-80
2023/04/15 12:49:34;;;;;;;0.70;0.55;;;;;;;;;;4976885;28;20022;-81
2023/04/15 12:52:01;;;;;;;0.50;0.40;;;;;;;;;;4976184;28;20029;-80
2023/04/15 12:54:28;;;;;;;0.65;0.65;;;;;;;;;;4977736;28;20058;-80
2023/04/15 12:56:54;;;;;;;1.77;0.60;;;;;;;;;;4980526;28;20150;-80
2023/04/15 12:59:20;;;;;;;2.20;0.90;;;;;;;;;;4995543;28;20093;-82
2023/04/15 13:01:47;;;;;;;0.88;0.70;;;;;;;;;;4982724;28;20050;-80
2023/04/15 13:04:13;;;;;;;0.50;0.50;;;;;;;;;;4996949;28;20045;-81
2023/04/15 13:06:39;;;;;;;1.27;0.73;;;;;;;;;;4977361;28;20109;-81
2023/04/15 13:09:06;;;;;;;0.70;0.70;;;;;;;;;;4994454;28;20100;-80
2023/04/15 13:11:32;;;;;;;1.23;0.40;;;;;;;;;;4996081;28;20025;-80
2023/04/15 13:14:07;;;;;;;0.55;0.55;;;;;;;;;;4980324;28;20030;-83
2023/04/15 13:16:36;;;;;;;0.45;0.30;;;;;;;;;;4999698;28;20066;-80
2023/04/15 13:19:06;;;;;;;0.65;0.30;;;;;;;;;;4996338;28;20050;-81
2023/04/15 13:21:34;;;;;;;;;;;;;;;;;;4997051;28;20088;-80
2023/04/15 13:24:00;;;;;;;0.90;0.30;;;;;;;;;;4994107;28;19906;-78
2023/04/15 13:26:26;;;;;;;0.70;0.60;;;;;;;;;;4993732;28;20106;-80
2023/04/15 13:28:52;;;;;;;0.32;0.32;;;;;;;;;;4990581;28;20061;-80
2023/04/15 13:31:18;;;;;;;0.40;0.40;;;;;;;;;;4974726;28;20530;-81
2023/04/15 13:33:44;;;;;;;0.98;0.28;;;;;;;;;;4995046;28;20036;-81
2023/04/15 13:36:10;;;;;;;0.35;0.20;;;;;;;;;;4994215;28;20113;-80
2023/04/15 13:38:36;;;;;;;0.30;0.20;;;;;;;;;;4995813;28;20030;-80
2023/04/15 13:41:02;;;;;;;0.40;0.40;;;;;;;;;;4997705;28;20056;-80
2023/04/15 13:43:28;;;;;;;0.30;0.30;;;;;;;;;;4980788;28;20166;-82
2023/04/15 13:45:54;;;;;;;0.50;0.50;;;;;;;;;;4979663;28;20053;-80
2023/04/15 13:48:20;;;;;;;0.68;0.52;;;;;;;;;;4994443;28;20023;-79
2023/04/15 13:50:46;;;;;;;1.30;0.43;;;;;;;;;;4996787;28;20034;-81
2023/04/15 13:53:12;;;;;;;0.30;0.30;;;;;;;;;;4977478;28;20078;-82
2023/04/15 13:55:42;;;;;;;0.35;0.30;;;;;;;;;;4994551;28;20037;-81
2023/04/15 13:58:13;;;;;;;1.77;0.38;;;;;;;;;;4976978;28;20065;-80
2023/04/15 14:00:39;;;;;;;0.47;0.47;;;;;;;;;;4995014;28;20053;-81
2023/04/15 14:03:05;;;;;;;0.55;0.55;;;;;;;;;;4994998;28;20045;-81
2023/04/15 14:05:32;;;;;;;1.80;0.52;;;;;;;;;;4995437;28;20491;-82
2023/04/15 14:07:59;;;;;;;0.50;0.50;;;;;;;;;;4975511;28;20061;-80
2023/04/15 14:10:26;;;;;;;1.30;0.43;;;;;;;;;;4975536;28;20413;-81
2023/04/15 14:12:52;;;;;;;0.65;0.65;;;;;;;;;;4975125;28;20491;-80
2023/04/15 14:15:19;;;;;;;2.15;0.93;;;;;;;;;;4974403;28;20121;-79
2023/04/15 14:17:45;;;;;;;0.60;0.50;;;;;;;;;;4992333;28;20030;-80
2023/04/15 14:20:11;;;;;;;0.57;0.38;;;;;;;;;;4991954;28;20061;-80
2023/04/15 14:22:38;;;;;;;0.77;0.50;;;;;;;;;;4991376;28;20098;-79
2023/04/15 14:25:05;;;;;;;0.68;0.68;;;;;;;;;;4973848;28;20382;-78
2023/04/15 14:27:31;;;;;;;1.67;0.40;;;;;;;;;;4973950;28;20565;-79
2023/04/15 14:29:57;;;;;;;0.40;0.40;;;;;;;;;;4991610;28;20061;-80
2023/04/15 14:32:25;;;;;;;0.30;0.30;;;;;;;;;;4988411;28;20030;-78
2023/04/15 14:34:51;;;;;;;0.30;0.30;;;;;;;;;;5011619;28;20080;-79
2023/04/15 14:37:18;;;;;;;0.38;0.22;;;;;;;;;;5011455;28;20438;-81
2023/04/15 14:39:44;;;;;;;0.30;0.30;;;;;;;;;;5012605;28;20443;-80
2023/04/15 14:42:10;;;;;;;0.40;0.38;;;;;;;;;;4994721;28;20030;-78
2023/04/15 14:44:36;;;;;;;0.65;0.65;;;;;;;;;;5012439;28;20026;-78